Time;durP1;ratioP1;P1;durP2;ratioP2;P2;SDS_P1;SDS_P2;PMS_P1;PMS_P2;Temp;Humidity;BMP_temperature;BMP_pressure;BME280_temperature;BME280_humidity;BME280_pressure;Samples;Min_cycle;Max_cycle;Signal;HPM_P1;HPM_P2
2023/05/05 00:00:23;;;;;;;0.32;0.32;;;;;;;15.11;57.30;96914.31;29395;299;63009;-60
2023/05/05 00:00:54;;;;;;;0.40;0.40;;;;;;;15.10;57.26;96910.78;29395;224;63005;-63
2023/05/05 00:01:27;;;;;;;0.30;0.30;;;;;;;15.09;57.73;96917.38;29395;333;63009;-58
2023/05/05 00:01:58;;;;;;;0.40;0.40;;;;;;;15.07;57.59;96914.16;29395;244;63005;-62
2023/05/05 00:02:29;;;;;;;0.30;0.30;;;;;;;15.07;57.51;96916.88;29394;223;64013;-60
2023/05/05 00:03:00;;;;;;;0.40;0.40;;;;;;;15.06;57.98;96918.00;29395;197;63000;-60
2023/05/05 00:03:34;;;;;;;0.30;0.30;;;;;;;15.05;57.72;96921.84;29395;196;63009;-60
2023/05/05 00:04:06;;;;;;;0.40;0.40;;;;;;;15.04;57.41;96904.66;29394;312;64009;-60
2023/05/05 00:04:37;;;;;;;0.32;0.32;;;;;;;15.04;57.78;96909.31;29394;221;64013;-61
2023/05/05 00:05:09;;;;;;;0.40;0.40;;;;;;;15.05;57.73;96917.19;29395;240;63004;-60
2023/05/05 00:05:41;;;;;;;0.30;0.30;;;;;;;15.05;57.32;96916.41;29395;262;63008;-60
2023/05/05 00:06:14;;;;;;;0.40;0.40;;;;;;;15.05;57.52;96916.41;29395;330;63009;-60
2023/05/05 00:06:46;;;;;;;0.30;0.30;;;;;;;15.05;57.58;96917.19;29395;197;63009;-60
2023/05/05 00:07:17;;;;;;;0.40;0.40;;;;;;;15.05;57.95;96913.66;29395;197;63005;-60
2023/05/05 00:07:49;;;;;;;0.40;0.40;;;;;;;15.06;57.68;96912.53;29395;318;63009;-61
2023/05/05 00:08:21;;;;;;;0.40;0.40;;;;;;;15.06;57.90;96918.81;29395;291;63005;-60
2023/05/05 00:08:54;;;;;;;0.40;0.40;;;;;;;15.06;57.73;96918.00;29395;349;63009;-61
2023/05/05 00:09:25;;;;;;;0.40;0.40;;;;;;;15.05;58.30;96914.47;29395;247;63005;-60
2023/05/05 00:09:56;;;;;;;0.40;0.40;;;;;;;15.05;57.97;96917.19;29394;260;64013;-62
2023/05/05 00:10:28;;;;;;;0.40;0.40;;;;;;;15.06;58.21;96918.00;29395;347;63004;-60
2023/05/05 00:10:59;;;;;;;0.40;0.40;;;;;;;15.06;57.96;96909.81;29395;234;63009;-61
2023/05/05 00:11:30;;;;;;;0.40;0.40;;;;;;;15.05;58.13;96917.19;29395;217;63004;-59
2023/05/05 00:12:01;;;;;;;0.40;0.40;;;;;;;15.06;57.81;96912.53;29395;224;63009;-61
2023/05/05 00:12:32;;;;;;;0.40;0.40;;;;;;;15.05;57.81;96914.47;29395;196;63004;-61
2023/05/05 00:13:04;;;;;;;0.40;0.40;;;;;;;15.05;58.70;96914.47;29395;219;63004;-62
2023/05/05 00:13:36;;;;;;;0.40;0.40;;;;;;;15.05;58.25;96916.41;29395;196;63004;-60
2023/05/05 00:14:10;;;;;;;0.40;0.40;;;;;;;15.05;58.20;96919.13;29394;221;64009;-60
2023/05/05 00:14:41;;;;;;;0.35;0.35;;;;;;;15.05;58.05;96916.41;29395;205;63005;-63
2023/05/05 00:15:12;;;;;;;0.40;0.40;;;;;;;15.03;58.59;96908.53;29394;240;64013;-60
2023/05/05 00:15:46;;;;;;;0.40;0.40;;;;;;;15.03;58.00;96902.25;29394;253;64009;-59
2023/05/05 00:16:17;;;;;;;0.50;0.50;;;;;;;15.05;57.98;96910.94;29395;278;63009;-60
2023/05/05 00:16:49;;;;;;;0.30;0.30;;;;;;;15.05;57.91;96900.00;29394;260;64009;-62
2023/05/05 00:17:20;;;;;;;0.40;0.40;;;;;;;15.06;57.83;96913.34;29395;267;63009;-61
2023/05/05 00:17:51;;;;;;;0.40;0.40;;;;;;;15.07;57.80;96914.16;29395;228;63004;-60
2023/05/05 00:18:23;;;;;;;0.40;0.40;;;;;;;15.06;58.20;96904.34;29395;218;63009;-61
2023/05/05 00:18:54;;;;;;;0.40;0.40;;;;;;;15.06;58.71;96918.00;29395;235;63004;-60
2023/05/05 00:19:25;;;;;;;0.40;0.40;;;;;;;15.05;58.12;96910.94;29395;218;63009;-61
2023/05/05 00:19:58;;;;;;;0.40;0.40;;;;;;;15.05;58.16;96908.19;29395;213;63000;-60
2023/05/05 00:20:30;;;;;;;0.40;0.40;;;;;;;15.04;58.85;96904.66;29395;202;63009;-60
2023/05/05 00:21:01;;;;;;;0.40;0.40;;;;;;;15.04;58.86;96909.31;29395;222;63005;-60
2023/05/05 00:21:32;;;;;;;0.40;0.40;;;;;;;15.03;58.37;96913.19;29395;216;63009;-61
2023/05/05 00:22:04;;;;;;;0.40;0.40;;;;;;;15.03;58.41;96910.44;29394;224;64009;-60
2023/05/05 00:22:36;;;;;;;0.40;0.40;;;;;;;15.03;58.32;96908.53;29395;214;63009;-60
2023/05/05 00:23:08;;;;;;;0.40;0.40;;;;;;;15.05;58.23;96905.47;29395;206;63005;-61
2023/05/05 00:23:39;;;;;;;0.40;0.40;;;;;;;15.05;58.23;96905.47;29395;212;63009;-60
2023/05/05 00:24:11;;;;;;;0.32;0.32;;;;;;;15.05;59.00;96911.72;29395;232;63005;-61
2023/05/05 00:24:42;;;;;;;0.40;0.40;;;;;;;15.04;58.24;96904.66;29395;212;63009;-61
2023/05/05 00:25:14;;;;;;;0.40;0.40;;;;;;;15.05;58.39;96905.47;29395;207;63004;-60
2023/05/05 00:25:45;;;;;;;0.40;0.40;;;;;;;15.04;58.12;96907.41;29395;198;63009;-60
2023/05/05 00:26:16;;;;;;;0.40;0.40;;;;;;;15.03;58.74;96911.25;29395;347;63004;-61
2023/05/05 00:26:48;;;;;;;0.40;0.40;;;;;;;15.03;58.58;96913.19;29395;222;63009;-62
2023/05/05 00:27:22;;;;;;;0.32;0.32;;;;;;;15.03;58.38;96907.72;29394;221;64008;-62
2023/05/05 00:27:54;;;;;;;0.40;0.40;;;;;;;15.03;58.30;96902.25;29395;226;63008;-59
2023/05/05 00:28:25;;;;;;;0.40;0.40;;;;;;;15.03;59.41;96907.72;29395;245;63005;-60
2023/05/05 00:28:56;;;;;;;0.40;0.40;;;;;;;15.03;58.96;96913.19;29395;314;63009;-60
2023/05/05 00:29:27;;;;;;;0.40;0.40;;;;;;;15.02;59.48;96912.38;29394;216;64009;-60
2023/05/05 00:29:59;;;;;;;0.50;0.50;;;;;;;15.01;58.69;96904.50;29395;225;63009;-56
2023/05/05 00:30:30;;;;;;;0.40;0.40;;;;;;;15.01;59.06;96907.22;29395;208;63005;-60
2023/05/05 00:31:01;;;;;;;0.40;0.40;;;;;;;15.00;58.58;96902.88;29395;204;63017;-60
2023/05/05 00:31:32;;;;;;;0.40;0.40;;;;;;;15.00;58.68;96898.22;29394;212;64005;-60
2023/05/05 00:32:04;;;;;;;0.40;0.40;;;;;;;15.02;58.60;96912.38;29395;297;63009;-59
2023/05/05 00:32:36;;;;;;;0.40;0.40;;;;;;;15.02;58.70;96911.56;29395;202;63004;-59
2023/05/05 00:33:07;;;;;;;0.40;0.40;;;;;;;15.02;59.01;96911.56;29395;261;63027;-58
2023/05/05 00:33:38;;;;;;;0.40;0.40;;;;;;;15.02;58.79;96908.84;29395;223;63004;-60
2023/05/05 00:34:09;;;;;;;0.40;0.40;;;;;;;15.01;58.97;96913.50;29395;251;63009;-60
2023/05/05 00:34:41;;;;;;;0.40;0.40;;;;;;;14.99;58.92;96912.22;29394;272;64009;-60
2023/05/05 00:35:13;;;;;;;0.40;0.40;;;;;;;14.99;58.68;96906.75;29395;206;63008;-59
2023/05/05 00:35:44;;;;;;;0.40;0.40;;;;;;;15.02;59.19;96906.91;29395;339;63005;-59
2023/05/05 00:36:18;;;;;;;0.40;0.40;;;;;;;15.04;58.75;96909.31;29395;245;63009;-60
2023/05/05 00:36:49;;;;;;;0.40;0.40;;;;;;;15.03;59.20;96913.19;29395;197;63005;-60
2023/05/05 00:37:21;;;;;;;0.40;0.40;;;;;;;15.01;58.93;96905.31;29395;249;63009;-60
2023/05/05 00:37:52;;;;;;;0.40;0.40;;;;;;;15.01;58.89;96909.97;29395;231;63005;-59
2023/05/05 00:38:23;;;;;;;0.40;0.40;;;;;;;14.99;59.03;96904.81;29395;258;63009;-60
2023/05/05 00:38:55;;;;;;;0.40;0.40;;;;;;;15.00;58.88;96908.34;29395;197;63005;-60
2023/05/05 00:39:26;;;;;;;0.40;0.40;;;;;;;14.98;58.77;96905.94;29395;213;63009;-60
2023/05/05 00:39:58;;;;;;;0.40;0.40;;;;;;;14.98;58.89;96905.13;29394;224;64009;-60
2023/05/05 00:40:30;;;;;;;0.40;0.40;;;;;;;14.98;58.84;96911.41;29395;283;63009;-58
2023/05/05 00:41:01;;;;;;;0.40;0.40;;;;;;;15.00;58.98;96905.63;29395;218;63004;-60
2023/05/05 00:41:32;;;;;;;0.40;0.40;;;;;;;14.99;59.08;96909.47;29395;213;63009;-59
2023/05/05 00:42:06;;;;;;;0.40;0.40;;;;;;;15.01;59.05;96909.97;29395;273;63004;-60
2023/05/05 00:42:43;;;;;;;0.40;0.40;;;;;;;15.02;59.12;96906.09;29395;226;63008;-59
2023/05/05 00:43:15;;;;;;;0.40;0.40;;;;;;;15.02;59.13;96903.38;29395;196;63005;-57
2023/05/05 00:43:49;;;;;;;0.40;0.40;;;;;;;15.03;58.84;96907.72;29395;253;63009;-60
2023/05/05 00:44:41;;;;;;;0.40;0.40;;;;;;;15.06;59.05;96907.06;29395;211;63005;-59
2023/05/05 00:45:14;;;;;;;0.40;0.40;;;;;;;15.05;58.95;96902.72;29416;218;64013;-59
2023/05/05 00:45:46;;;;;;;0.40;0.40;;;;;;;15.07;58.89;96909.47;29395;203;63005;-59
2023/05/05 00:46:28;;;;;;;0.40;0.40;;;;;;;15.08;58.87;96910.28;29395;253;63009;-60
2023/05/05 00:46:59;;;;;;;0.40;0.40;;;;;;;15.08;59.14;96910.28;29395;273;63005;-61
2023/05/05 00:47:31;;;;;;;0.40;0.40;;;;;;;15.08;59.10;96907.56;29395;350;63009;-59
2023/05/05 00:48:03;;;;;;;0.40;0.40;;;;;;;15.06;59.37;96907.88;29395;209;63007;-58
2023/05/05 00:48:36;;;;;;;0.40;0.40;;;;;;;15.07;59.23;96903.22;29395;325;63009;-60
2023/05/05 00:49:08;;;;;;;0.40;0.40;;;;;;;15.06;59.25;96907.88;29395;218;63004;-59
2023/05/05 00:49:39;;;;;;;0.40;0.40;;;;;;;15.05;59.29;96906.28;29395;196;63009;-60
2023/05/05 00:50:24;;;;;;;0.40;0.40;;;;;;;15.05;59.22;96910.94;29395;201;63016;-60
2023/05/05 00:50:55;;;;;;;0.40;0.40;;;;;;;15.06;59.08;96907.06;29394;203;64014;-60
2023/05/05 00:51:28;;;;;;;0.40;0.40;;;;;;;15.07;59.35;96904.03;29395;202;63005;-60
2023/05/05 00:52:00;;;;;;;0.40;0.40;;;;;;;15.07;59.33;96911.41;29395;230;63009;-60
2023/05/05 00:52:37;;;;;;;0.40;0.40;;;;;;;15.07;59.42;96903.22;29395;267;63005;-56
2023/05/05 00:53:08;;;;;;;0.40;0.40;;;;;;;15.08;59.14;96904.81;29395;210;63009;-60
2023/05/05 00:53:41;;;;;;;0.40;0.40;;;;;;;15.08;58.82;96904.81;29395;336;63005;-59
2023/05/05 00:54:13;;;;;;;0.40;0.40;;;;;;;15.11;59.00;96903.38;29395;214;63009;-59
2023/05/05 00:54:44;;;;;;;0.40;0.40;;;;;;;15.12;59.15;96899.53;29395;244;63005;-60
2023/05/05 00:55:16;;;;;;;0.40;0.40;;;;;;;15.11;59.47;96898.72;29395;218;63009;-62
2023/05/05 00:55:49;;;;;;;0.40;0.40;;;;;;;15.09;59.50;96906.44;29395;213;63004;-56
2023/05/05 00:56:22;;;;;;;0.40;0.40;;;;;;;15.08;59.08;96899.34;29394;215;64013;-57
2023/05/05 00:56:53;;;;;;;0.40;0.40;;;;;;;15.07;59.20;96897.75;29395;214;63004;-59
2023/05/05 00:57:25;;;;;;;0.40;0.40;;;;;;;15.08;59.14;96904.81;29395;215;63019;-59
2023/05/05 00:57:57;;;;;;;0.40;0.40;;;;;;;15.08;59.34;96902.09;29395;205;63004;-59
2023/05/05 00:58:29;;;;;;;0.40;0.40;;;;;;;15.11;59.04;96896.00;29395;231;63009;-58
2023/05/05 00:59:02;;;;;;;0.40;0.40;;;;;;;15.12;59.24;96894.06;29395;258;63005;-59
2023/05/05 00:59:35;;;;;;;0.40;0.40;;;;;;;15.17;58.84;96897.44;29395;269;63009;-60
2023/05/05 01:00:09;;;;;;;1.02;1.02;;;;;;;15.20;58.75;96899.53;29395;204;63005;-60
2023/05/05 01:00:40;;;;;;;0.40;0.40;;;;;;;15.20;58.61;96902.25;29395;219;63009;-59
2023/05/05 01:01:12;;;;;;;0.40;0.40;;;;;;;15.21;58.62;96908.53;29394;205;64009;-60
2023/05/05 01:01:45;;;;;;;0.50;0.50;;;;;;;15.20;58.81;96899.53;29395;197;63009;-59
2023/05/05 01:02:17;;;;;;;0.40;0.40;;;;;;;15.20;58.84;96883.13;29395;340;63005;-60
2023/05/05 01:02:50;;;;;;;0.40;0.40;;;;;;;15.21;58.60;96897.59;29395;253;63015;-58
2023/05/05 01:03:22;;;;;;;0.40;0.40;;;;;;;15.22;58.84;96900.00;29394;275;64009;-60
2023/05/05 01:05:05;;;;;;;0.40;0.40;;;;;;;15.20;58.75;96898.72;88174;215;64004;-59
2023/05/05 01:06:28;;;;;;;0.40;0.40;;;;;;;15.19;58.79;96895.19;29394;239;64009;-58
2023/05/05 01:08:00;;;;;;;0.40;0.40;;;;;;;15.19;58.61;96899.84;29417;249;63005;-59
2023/05/05 01:09:18;;;;;;;0.40;0.40;;;;;;;15.17;58.81;96897.44;29395;272;63009;-60
2023/05/05 01:10:21;;;;;;;0.40;0.40;;;;;;;15.20;58.96;96902.25;29394;222;64009;-59
2023/05/05 01:11:01;;;;;;;0.50;0.50;;;;;;;15.19;58.89;96903.38;29395;257;63008;-58
2023/05/05 01:12:10;;;;;;;0.40;0.40;;;;;;;15.19;58.75;96902.59;29395;215;63005;-58
2023/05/05 01:13:33;;;;;;;0.50;0.50;;;;;;;15.15;59.00;96899.69;29395;241;63009;-56
2023/05/05 01:14:13;;;;;;;0.50;0.50;;;;;;;15.19;58.80;96897.13;29395;239;63005;-56
2023/05/05 01:14:55;;;;;;;0.40;0.40;;;;;;;15.22;58.69;96897.28;29395;209;63009;-56
2023/05/05 01:15:36;;;;;;;1.67;1.60;;;;;;;15.26;58.62;96906.41;29394;237;64009;-59
2023/05/05 01:16:20;;;;;;;0.40;0.40;;;;;;;15.36;58.51;96894.34;29395;254;63009;-56
2023/05/05 01:17:12;;;;;;;0.40;0.40;;;;;;;15.40;58.00;96890.66;29395;249;63004;-59
2023/05/05 01:18:26;;;;;;;0.40;0.40;;;;;;;15.39;58.00;96889.06;29395;244;63009;-59
2023/05/05 01:19:49;;;;;;;0.50;0.50;;;;;;;15.41;58.26;96889.53;29395;227;63005;-58
2023/05/05 01:20:35;;;;;;;0.47;0.47;;;;;;;15.48;57.90;96897.25;29417;210;63009;-59
2023/05/05 01:21:45;;;;;;;0.80;0.80;;;;;;;15.47;58.19;96889.38;29394;203;64009;-56
2023/05/05 01:22:23;;;;;;;0.50;0.50;;;;;;;15.51;57.80;96884.84;29395;198;63009;-60
2023/05/05 01:23:02;;;;;;;0.40;0.40;;;;;;;15.54;57.80;96890.47;29395;216;63009;-59
2023/05/05 01:24:10;;;;;;;0.50;0.50;;;;;;;15.53;57.86;96882.59;29395;202;63009;-56
2023/05/05 01:24:56;;;;;;;0.40;0.40;;;;;;;15.49;58.70;96887.12;29394;218;64013;-60
2023/05/05 01:26:07;;;;;;;0.40;0.40;;;;;;;15.43;59.35;96889.22;29395;268;63004;-60
2023/05/05 01:27:19;;;;;;;0.50;0.50;;;;;;;15.42;58.29;96882.94;29439;206;63009;-60
2023/05/05 01:28:23;;;;;;;0.40;0.40;;;;;;;15.39;58.33;96882.78;29395;219;63005;-59
2023/05/05 01:29:26;;;;;;;0.40;0.40;;;;;;;15.43;58.25;96890.00;29395;218;63009;-56
2023/05/05 01:30:36;;;;;;;0.50;0.50;;;;;;;15.46;58.10;96887.75;29394;238;64009;-58
2023/05/05 01:31:50;;;;;;;0.40;0.40;;;;;;;15.49;57.71;96884.37;29395;225;63009;-61
2023/05/05 01:32:27;;;;;;;0.40;0.40;;;;;;;15.50;57.80;96883.25;29395;202;63004;-57
2023/05/05 01:33:07;;;;;;;0.40;0.40;;;;;;;15.52;58.01;96881.00;29395;224;63008;-60
2023/05/05 01:33:46;;;;;;;0.40;0.40;;;;;;;15.51;57.69;96880.19;29439;232;63004;-57
2023/05/05 01:34:27;;;;;;;0.40;0.40;;;;;;;15.49;57.97;96885.19;29395;223;63009;-60
2023/05/05 01:35:14;;;;;;;0.40;0.40;;;;;;;15.50;58.10;96888.72;29416;226;64009;-56
2023/05/05 01:35:52;;;;;;;0.40;0.40;;;;;;;15.48;58.27;96883.56;29395;197;63026;-60
2023/05/05 01:36:31;;;;;;;0.40;0.40;;;;;;;15.47;58.14;96890.16;29395;243;63005;-59
2023/05/05 01:37:10;;;;;;;0.40;0.40;;;;;;;15.49;58.06;96882.44;29395;243;63009;-58
2023/05/05 01:38:18;;;;;;;0.40;0.40;;;;;;;15.45;58.02;96889.69;29395;256;63005;-58
2023/05/05 01:39:00;;;;;;;0.40;0.40;;;;;;;15.42;58.30;96882.94;29395;206;63009;-61
2023/05/05 01:39:34;;;;;;;0.40;0.40;;;;;;;15.39;58.34;96880.84;29395;249;63004;-59
2023/05/05 01:40:09;;;;;;;0.50;0.50;;;;;;;15.36;58.33;96889.69;29394;211;64013;-57
2023/05/05 01:40:47;;;;;;;0.40;0.40;;;;;;;15.37;58.40;96885.84;29395;218;63000;-59
2023/05/05 01:41:24;;;;;;;0.40;0.40;;;;;;;15.35;58.51;96885.34;29395;222;63020;-58
2023/05/05 01:41:59;;;;;;;0.40;0.40;;;;;;;15.34;58.52;96883.75;29395;216;63005;-59
2023/05/05 01:42:33;;;;;;;0.40;0.40;;;;;;;15.34;58.44;96883.75;29395;250;63009;-59
2023/05/05 01:43:07;;;;;;;0.40;0.40;;;;;;;15.30;59.83;96890.97;29394;250;64009;-60
2023/05/05 01:43:40;;;;;;;0.40;0.40;;;;;;;15.30;59.00;96885.50;29395;218;63009;-56
2023/05/05 01:44:14;;;;;;;0.40;0.40;;;;;;;15.30;58.87;96885.50;29395;251;63005;-56
2023/05/05 01:44:47;;;;;;;0.40;0.40;;;;;;;15.33;58.84;96889.53;29395;224;63009;-59
2023/05/05 01:45:22;;;;;;;0.40;0.40;;;;;;;15.37;58.86;96882.28;29395;210;63005;-59
2023/05/05 01:45:55;;;;;;;0.40;0.40;;;;;;;15.36;58.58;96892.44;29395;232;63015;-60
2023/05/05 01:46:29;;;;;;;0.40;0.40;;;;;;;15.33;58.57;96878.59;29395;208;63004;-59
2023/05/05 01:47:03;;;;;;;0.40;0.40;;;;;;;15.30;58.66;96882.78;29395;231;63014;-59
2023/05/05 01:47:37;;;;;;;0.40;0.40;;;;;;;15.30;58.56;96880.03;29394;211;64009;-60
2023/05/05 01:48:11;;;;;;;0.40;0.40;;;;;;;15.30;58.63;96890.19;29395;252;63008;-59
2023/05/05 01:48:44;;;;;;;0.40;0.40;;;;;;;15.28;58.97;96887.75;29395;205;63000;-59
2023/05/05 01:49:16;;;;;;;0.40;0.40;;;;;;;15.28;58.92;96879.56;29395;317;63009;-60
2023/05/05 01:49:50;;;;;;;0.40;0.40;;;;;;;15.27;58.86;96885.34;29395;208;63005;-60
2023/05/05 01:50:23;;;;;;;0.40;0.40;;;;;;;15.26;59.15;96883.75;29395;271;63009;-56
2023/05/05 01:50:56;;;;;;;0.40;0.40;;;;;;;15.23;59.20;96879.75;29394;251;64009;-60
2023/05/05 01:51:28;;;;;;;0.40;0.40;;;;;;;15.22;59.15;96883.63;29395;202;63009;-56
2023/05/05 01:52:02;;;;;;;0.52;0.52;;;;;;;15.29;59.26;96883.91;29395;225;63005;-59
2023/05/05 01:52:36;;;;;;;0.40;0.40;;;;;;;15.31;58.92;96881.66;29395;212;63005;-60
2023/05/05 01:53:09;;;;;;;0.40;0.40;;;;;;;15.34;58.83;96882.94;29395;275;63004;-59
2023/05/05 01:53:41;;;;;;;0.40;0.40;;;;;;;15.33;58.90;96887.59;29395;234;63013;-59
2023/05/05 01:54:17;;;;;;;0.40;0.40;;;;;;;15.34;58.96;96878.28;29395;212;63004;-58
2023/05/05 01:54:49;;;;;;;0.40;0.40;;;;;;;15.36;58.89;96888.88;29395;245;63008;-57
2023/05/05 01:55:24;;;;;;;0.40;0.40;;;;;;;15.35;58.67;96882.63;29395;258;63008;-58
2023/05/05 01:55:57;;;;;;;0.40;0.40;;;;;;;15.34;58.63;96880.19;29394;250;64013;-59
2023/05/05 01:56:33;;;;;;;0.40;0.40;;;;;;;15.33;58.75;96884.88;29395;228;63005;-56
2023/05/05 01:57:06;;;;;;;0.30;0.30;;;;;;;15.33;58.99;96879.41;29395;296;63009;-58
2023/05/05 01:57:40;;;;;;;0.40;0.40;;;;;;;15.33;58.88;96887.59;29395;197;63005;-59
2023/05/05 01:58:14;;;;;;;0.40;0.40;;;;;;;15.30;59.86;96885.50;29394;223;64013;-60
2023/05/05 01:58:47;;;;;;;0.40;0.40;;;;;;;15.27;59.20;96880.69;29394;227;64009;-60
2023/05/05 01:59:20;;;;;;;0.40;0.40;;;;;;;15.28;59.38;96881.50;29395;224;63009;-59
2023/05/05 01:59:53;;;;;;;0.40;0.40;;;;;;;15.26;59.09;96879.09;29395;266;63004;-57
2023/05/05 02:00:26;;;;;;;0.40;0.40;;;;;;;15.26;60.09;96889.22;29395;207;63018;-58
2023/05/05 02:00:59;;;;;;;0.37;0.37;;;;;;;15.25;59.60;96888.41;29395;212;63004;-61
2023/05/05 02:01:34;;;;;;;0.35;0.35;;;;;;;15.27;59.79;96888.88;29395;264;63009;-59
2023/05/05 02:02:10;;;;;;;0.40;0.40;;;;;;;15.26;59.38;96890.00;29395;344;63008;-59
2023/05/05 02:02:46;;;;;;;0.40;0.40;;;;;;;15.25;59.65;96888.41;29395;238;63024;-60
2023/05/05 02:03:20;;;;;;;0.40;0.40;;;;;;;15.24;59.62;96889.56;29395;228;63005;-58
2023/05/05 02:03:57;;;;;;;0.40;0.40;;;;;;;15.23;59.72;96885.22;29394;211;64014;-60
2023/05/05 02:04:31;;;;;;;0.40;0.40;;;;;;;15.24;59.69;96897.75;29394;220;64009;-58
2023/05/05 02:05:05;;;;;;;0.40;0.40;;;;;;;15.25;59.70;96887.59;29395;225;63009;-60
2023/05/05 02:05:39;;;;;;;0.40;0.40;;;;;;;15.24;59.59;96889.56;29395;219;63005;-58
2023/05/05 02:06:13;;;;;;;0.40;0.40;;;;;;;15.24;59.60;96886.81;29394;199;64013;-56
2023/05/05 02:06:50;;;;;;;0.40;0.40;;;;;;;15.26;59.51;96890.00;29395;360;63005;-58
2023/05/05 02:07:23;;;;;;;0.40;0.40;;;;;;;15.29;58.84;96889.38;29395;212;63009;-55
2023/05/05 02:07:58;;;;;;;0.40;0.40;;;;;;;15.34;59.00;96888.41;29395;228;63004;-57
2023/05/05 02:08:31;;;;;;;0.40;0.40;;;;;;;15.39;58.86;96889.06;29395;225;63022;-58
2023/05/05 02:09:04;;;;;;;0.40;0.40;;;;;;;15.43;58.60;96881.81;29395;239;63004;-59
2023/05/05 02:09:37;;;;;;;0.40;0.40;;;;;;;15.47;58.93;96895.62;29395;322;63020;-56
2023/05/05 02:10:13;;;;;;;0.40;0.40;;;;;;;15.48;58.35;96890.97;29395;228;63004;-58
2023/05/05 02:10:46;;;;;;;0.40;0.40;;;;;;;15.49;58.38;96881.66;29395;229;63009;-60
2023/05/05 02:11:20;;;;;;;0.40;0.40;;;;;;;15.50;58.37;96888.72;29394;207;64009;-58
2023/05/05 02:11:52;;;;;;;0.40;0.40;;;;;;;15.52;58.52;96886.47;29395;251;63025;-58
2023/05/05 02:12:24;;;;;;;0.40;0.40;;;;;;;15.53;58.55;96893.53;29395;205;63005;-57
2023/05/05 02:12:58;;;;;;;0.30;0.30;;;;;;;15.55;58.42;96891.28;29395;204;63009;-59
2023/05/05 02:13:31;;;;;;;0.40;0.40;;;;;;;15.57;57.77;96891.81;29395;231;63005;-56
2023/05/05 02:14:04;;;;;;;0.40;0.40;;;;;;;15.59;58.40;96884.06;29395;202;63009;-59
2023/05/05 02:14:37;;;;;;;0.40;0.40;;;;;;;15.63;57.83;96893.22;29395;281;63005;-56
2023/05/05 02:15:10;;;;;;;0.30;0.30;;;;;;;15.67;58.41;96880.50;29395;270;63009;-56
2023/05/05 02:15:43;;;;;;;0.40;0.40;;;;;;;15.66;57.86;96887.09;29395;197;63004;-56
2023/05/05 02:16:16;;;;;;;1.05;1.05;;;;;;;15.70;58.23;96890.78;29395;204;63009;-55
2023/05/05 02:16:49;;;;;;;0.40;0.40;;;;;;;15.72;57.70;96883.87;29394;228;64009;-59
2023/05/05 02:17:23;;;;;;;0.35;0.35;;;;;;;15.75;57.64;96885.16;29395;213;63008;-56
2023/05/05 02:17:56;;;;;;;0.40;0.40;;;;;;;15.76;57.30;96886.75;29395;301;63009;-59
2023/05/05 02:18:29;;;;;;;0.40;0.40;;;;;;;15.76;57.57;96886.75;29395;199;63023;-56
2023/05/05 02:19:05;;;;;;;0.40;0.40;;;;;;;15.73;57.74;96890.13;29395;258;63005;-59
2023/05/05 02:19:43;;;;;;;0.40;0.40;;;;;;;15.70;57.92;96888.06;29395;289;63009;-56
2023/05/05 02:20:17;;;;;;;0.40;0.40;;;;;;;15.70;57.83;96888.06;29395;229;63005;-57
2023/05/05 02:20:49;;;;;;;0.35;0.35;;;;;;;15.70;58.15;96888.06;29395;263;63009;-55
2023/05/05 02:21:21;;;;;;;0.40;0.40;;;;;;;15.72;57.36;96889.34;29394;256;64009;-56
2023/05/05 02:21:53;;;;;;;0.30;0.30;;;;;;;15.73;57.70;96892.88;29395;212;63009;-58
2023/05/05 02:22:25;;;;;;;0.30;0.30;;;;;;;15.68;57.97;96884.84;29395;213;63004;-60
2023/05/05 02:22:58;;;;;;;0.40;0.40;;;;;;;15.65;57.94;96886.28;29394;197;64009;-58
2023/05/05 02:23:30;;;;;;;0.40;0.40;;;;;;;15.68;58.12;96893.03;29394;198;64009;-59
2023/05/05 02:24:02;;;;;;;0.40;0.40;;;;;;;15.68;57.98;96896.59;29395;221;63009;-57
2023/05/05 02:24:34;;;;;;;0.40;0.40;;;;;;;15.76;57.73;96889.50;29395;228;63004;-54
2023/05/05 02:25:08;;;;;;;0.40;0.40;;;;;;;15.80;57.62;96889.66;29395;243;63026;-57
2023/05/05 02:25:48;;;;;;;0.85;0.85;;;;;;;15.82;57.30;96888.19;29395;198;63004;-57
2023/05/05 02:26:22;;;;;;;0.40;0.40;;;;;;;15.81;57.84;96877.56;29439;220;63009;-60
2023/05/05 02:26:58;;;;;;;0.30;0.30;;;;;;;15.78;57.65;96887.22;29395;204;63005;-57
2023/05/05 02:27:32;;;;;;;0.40;0.40;;;;;;;15.77;57.72;96893.84;29395;278;63009;-60
2023/05/05 02:28:09;;;;;;;0.40;0.40;;;;;;;15.72;58.40;96899.47;29395;199;63005;-59
2023/05/05 02:29:14;;;;;;;0.40;0.40;;;;;;;15.65;58.15;96901.91;29394;210;64013;-60
2023/05/05 02:29:58;;;;;;;0.30;0.30;;;;;;;15.65;57.99;96902.69;29395;199;63005;-54
2023/05/05 02:30:34;;;;;;;0.40;0.40;;;;;;;15.66;58.51;96892.56;29395;224;63009;-56
2023/05/05 02:31:07;;;;;;;0.40;0.40;;;;;;;15.66;57.82;96898.84;29395;203;63004;-60
2023/05/05 02:31:44;;;;;;;0.40;0.40;;;;;;;15.68;58.19;96901.25;29395;202;63009;-58
2023/05/05 02:32:26;;;;;;;0.40;0.40;;;;;;;15.66;58.21;96903.50;29395;202;63004;-60
2023/05/05 02:33:07;;;;;;;0.40;0.40;;;;;;;15.66;58.39;96900.78;29394;227;64008;-57
2023/05/05 02:33:41;;;;;;;0.40;0.40;;;;;;;15.64;58.25;96901.09;29417;197;63005;-58
2023/05/05 02:34:18;;;;;;;0.40;0.40;;;;;;;15.65;58.56;96896.44;29394;210;64014;-56
2023/05/05 02:34:52;;;;;;;1.10;1.05;;;;;;;15.66;58.30;96895.28;29395;253;63005;-60
2023/05/05 02:35:29;;;;;;;0.30;0.30;;;;;;;15.64;58.40;96906.56;29395;251;63009;-58
2023/05/05 02:36:13;;;;;;;0.40;0.40;;;;;;;15.69;58.36;96897.38;29395;203;63018;-57
2023/05/05 02:36:46;;;;;;;0.40;0.40;;;;;;;15.69;58.11;96892.72;29395;207;63009;-56
2023/05/05 02:37:23;;;;;;;0.40;0.40;;;;;;;15.66;58.23;96900.78;29395;273;63005;-59
2023/05/05 02:38:01;;;;;;;0.40;0.40;;;;;;;15.65;58.18;96907.37;29395;220;63021;-59
2023/05/05 02:38:36;;;;;;;0.40;0.40;;;;;;;15.61;58.63;96901.75;29395;197;63000;-56
2023/05/05 02:39:17;;;;;;;0.40;0.40;;;;;;;15.62;58.55;96903.34;29395;211;63009;-57
2023/05/05 02:40:01;;;;;;;0.40;0.40;;;;;;;15.61;58.27;96906.41;29394;238;64009;-56
2023/05/05 02:40:34;;;;;;;0.40;0.40;;;;;;;15.58;58.59;96912.56;29395;209;63008;-57
2023/05/05 02:41:13;;;;;;;0.40;0.40;;;;;;;15.56;59.01;96903.84;29395;228;63005;-58
2023/05/05 02:41:48;;;;;;;0.40;0.40;;;;;;;15.53;58.98;96899.81;29395;219;63017;-58
2023/05/05 02:42:22;;;;;;;0.40;0.40;;;;;;;15.55;58.95;96913.16;29395;200;63005;-56
2023/05/05 02:42:56;;;;;;;0.40;0.40;;;;;;;15.60;58.81;96910.28;29395;237;63009;-56
2023/05/05 02:43:32;;;;;;;0.40;0.40;;;;;;;15.63;58.37;96909.62;29395;251;63005;-57
2023/05/05 02:44:05;;;;;;;0.40;0.40;;;;;;;15.62;58.85;96916.22;29395;255;63009;-59
2023/05/05 02:44:41;;;;;;;0.30;0.30;;;;;;;15.60;58.68;96910.28;29395;280;63004;-57
2023/05/05 02:45:19;;;;;;;0.32;0.32;;;;;;;15.61;58.97;96917.34;29394;213;64013;-57
2023/05/05 02:45:51;;;;;;;1.00;1.00;;;;;;;15.59;58.35;96908.69;29395;197;63004;-58
2023/05/05 02:46:22;;;;;;;0.30;0.30;;;;;;;15.60;58.40;96910.28;29395;231;63009;-59
2023/05/05 02:46:54;;;;;;;0.30;0.30;;;;;;;15.59;58.68;96914.16;29395;197;63004;-57
2023/05/05 02:47:37;;;;;;;0.40;0.40;;;;;;;15.55;59.31;96908.50;29395;214;63008;-59
2023/05/05 02:48:11;;;;;;;0.40;0.40;;;;;;;15.54;58.87;96908.81;29395;250;63004;-57
2023/05/05 02:48:45;;;;;;;0.40;0.40;;;;;;;15.52;59.29;96914.63;29395;299;63009;-58
2023/05/05 02:49:17;;;;;;;0.40;0.40;;;;;;;15.50;59.17;96921.53;29395;333;63005;-57
2023/05/05 02:49:48;;;;;;;0.40;0.40;;;;;;;15.50;59.43;96916.06;29395;202;63009;-56
2023/05/05 02:50:19;;;;;;;0.40;0.40;;;;;;;15.54;59.10;96911.56;29394;199;64009;-58
2023/05/05 02:50:51;;;;;;;0.40;0.40;;;;;;;15.58;58.70;96912.56;29395;254;63018;-55
2023/05/05 02:51:22;;;;;;;0.40;0.40;;;;;;;15.56;59.18;96915.59;29395;218;63005;-60
2023/05/05 02:51:53;;;;;;;0.30;0.30;;;;;;;15.53;59.10;96924.44;29395;228;63009;-58
2023/05/05 02:52:24;;;;;;;0.40;0.40;;;;;;;15.51;59.28;96917.69;29395;218;63004;-58
2023/05/05 02:52:57;;;;;;;0.40;0.40;;;;;;;15.52;58.87;96913.81;29395;213;63009;-59
2023/05/05 02:53:29;;;;;;;0.40;0.40;;;;;;;15.53;59.18;96915.41;29395;258;63004;-58
2023/05/05 02:54:01;;;;;;;0.40;0.40;;;;;;;15.52;58.86;96920.09;29394;227;64013;-57
2023/05/05 02:54:32;;;;;;;0.40;0.40;;;;;;;15.55;58.71;96913.97;29395;283;63004;-59